Mount Victoria, Maryland
Current Conditions -  °F | °C
As of 9:38 AM on Monday 26 Jan 2015 (Local Time) from K2W6 Reporting Station
Overcast Overcast  
Wind Chill: 34°   Ceiling: 1100
Heat Index: 37°   Visibility: 10mi
Dew Point: 34°   Wind: 5mph
Humidity: 87%   Direction: 30°NNE
Pressure: 29.78"   Gusts: NA
Location:  38.35°N, 76.9°W
Report Text: K2W6 261438Z AUTO 03004KT 10SM OVC011 03/01 A2978 RMK AO1
Loading
Personal Weather Stations






























Interactive Weather Map New forecast layout! Learn more

10-Day Weather Forecast

Advertisements
Track Severe Weather on mobile